createdAt,value
2018-12-08T00:01:57.557Z,6.90
2018-12-08T00:04:26.113Z,6.90
2018-12-08T00:06:54.726Z,6.90
2018-12-08T00:09:23.238Z,6.90
2018-12-08T00:11:51.822Z,6.90
2018-12-08T00:14:20.303Z,6.80
2018-12-08T00:16:49.502Z,6.90
2018-12-08T00:19:17.994Z,6.90
2018-12-08T00:22:51.374Z,7.00
2018-12-08T00:25:19.790Z,7.20
2018-12-08T00:27:48.283Z,7.40
2018-12-08T00:30:27.984Z,7.50
2018-12-08T00:32:56.495Z,7.50
2018-12-08T00:35:52.618Z,7.60
2018-12-08T00:38:22.120Z,7.70
2018-12-08T00:40:50.538Z,7.70
2018-12-08T00:43:19.062Z,7.70
2018-12-08T00:45:47.462Z,7.80
2018-12-08T00:48:15.946Z,7.80
2018-12-08T00:50:44.374Z,7.80
2018-12-08T00:53:12.828Z,7.90
2018-12-08T00:55:41.281Z,7.90
2018-12-08T00:58:13.141Z,7.80
2018-12-08T01:00:41.596Z,7.80
2018-12-08T01:03:10.056Z,7.90
2018-12-08T01:05:38.548Z,8.00
2018-12-08T01:08:07.266Z,8.10
2018-12-08T01:10:36.956Z,8.00
2018-12-08T01:13:05.398Z,8.00
2018-12-08T01:15:34.429Z,8.00
2018-12-08T01:18:03.081Z,7.90
2018-12-08T01:20:32.372Z,7.80
2018-12-08T01:23:00.882Z,7.70
2018-12-08T01:25:29.387Z,7.70
2018-12-08T01:27:57.822Z,7.70
2018-12-08T01:30:26.348Z,7.70
2018-12-08T01:32:54.799Z,7.70
2018-12-08T01:35:23.244Z,7.70
2018-12-08T01:37:51.934Z,7.70
2018-12-08T01:40:20.446Z,7.70
2018-12-08T01:43:01.509Z,7.50
2018-12-08T01:45:30.529Z,7.40
2018-12-08T01:47:59.091Z,7.30
2018-12-08T01:50:27.649Z,7.20
2018-12-08T01:52:56.324Z,7.20
2018-12-08T01:55:24.931Z,7.20
2018-12-08T01:57:53.514Z,7.20
2018-12-08T02:00:30.681Z,7.20
2018-12-08T02:02:59.618Z,7.10
2018-12-08T02:05:28.111Z,7.10
2018-12-08T02:07:56.526Z,7.20
2018-12-08T02:10:25.004Z,7.10
2018-12-08T02:12:53.514Z,7.20
2018-12-08T02:15:22.094Z,7.20
2018-12-08T02:17:50.546Z,7.20
2018-12-08T02:20:19.273Z,7.20
2018-12-08T02:22:47.816Z,7.20
2018-12-08T02:25:16.341Z,7.30
2018-12-08T02:27:44.835Z,7.30
2018-12-08T02:30:13.669Z,7.30
2018-12-08T02:32:42.250Z,7.30
2018-12-08T02:35:10.793Z,7.40
2018-12-08T02:37:39.310Z,7.40
2018-12-08T02:40:09.059Z,7.40
2018-12-08T02:42:37.621Z,7.40
2018-12-08T02:45:06.346Z,7.30
2018-12-08T02:47:34.761Z,7.30
2018-12-08T02:50:03.310Z,7.20
2018-12-08T02:52:31.838Z,7.10
2018-12-08T02:55:00.534Z,7.20
2018-12-08T02:57:29.365Z,7.20
2018-12-08T02:59:57.937Z,7.30
2018-12-08T03:02:26.390Z,7.20
2018-12-08T03:05:35.463Z,7.20
2018-12-08T03:08:04.135Z,7.10
2018-12-08T03:10:33.606Z,7.20
2018-12-08T03:13:02.226Z,7.20
2018-12-08T03:15:30.948Z,7.20
2018-12-08T03:17:59.535Z,7.30
2018-12-08T03:20:28.010Z,7.40
2018-12-08T03:22:56.474Z,7.50
2018-12-08T03:25:25.007Z,7.60
2018-12-08T03:27:53.599Z,7.70
2018-12-08T03:30:22.155Z,7.70
2018-12-08T03:32:50.632Z,7.60
2018-12-08T03:35:19.158Z,7.50
2018-12-08T03:37:47.623Z,7.50
2018-12-08T03:40:16.086Z,7.60
2018-12-08T03:42:44.587Z,7.60
2018-12-08T03:45:13.123Z,7.60
2018-12-08T03:47:41.584Z,7.70
2018-12-08T03:50:10.127Z,7.70
2018-12-08T03:52:38.627Z,7.70
2018-12-08T03:55:07.115Z,7.70
2018-12-08T03:57:37.388Z,7.80
2018-12-08T04:00:06.351Z,7.80
2018-12-08T04:02:35.965Z,7.90
2018-12-08T04:05:04.900Z,7.90
2018-12-08T04:07:33.420Z,8.00
2018-12-08T04:10:01.938Z,8.10
2018-12-08T04:12:30.486Z,8.10
2018-12-08T04:14:59.534Z,8.10
2018-12-08T04:17:28.720Z,8.20
2018-12-08T04:19:57.192Z,8.30
2018-12-08T04:22:25.819Z,8.30
2018-12-08T04:24:54.368Z,8.40
2018-12-08T04:27:22.853Z,8.40
2018-12-08T04:29:52.319Z,8.40
2018-12-08T04:32:21.474Z,8.40
2018-12-08T04:34:51.166Z,8.50
2018-12-08T04:37:19.614Z,8.40
2018-12-08T04:39:48.096Z,8.50
2018-12-08T04:42:16.531Z,8.50
2018-12-08T04:44:45.001Z,8.50
2018-12-08T04:47:13.453Z,8.50
2018-12-08T04:49:41.888Z,8.50
2018-12-08T04:52:10.421Z,8.50
2018-12-08T04:54:38.867Z,8.60
2018-12-08T04:57:07.375Z,8.50
2018-12-08T04:59:35.890Z,8.50
2018-12-08T05:02:04.334Z,8.40
2018-12-08T05:04:32.918Z,8.50
2018-12-08T05:07:01.324Z,8.50
2018-12-08T05:09:29.754Z,8.50
2018-12-08T05:11:58.227Z,8.50
2018-12-08T05:14:26.706Z,8.50
2018-12-08T05:16:55.152Z,8.60
2018-12-08T05:19:23.604Z,8.60
2018-12-08T05:21:52.068Z,8.50
2018-12-08T05:24:20.514Z,8.50
2018-12-08T05:26:49.011Z,8.50
2018-12-08T05:29:17.459Z,8.50
2018-12-08T05:31:45.946Z,8.50
2018-12-08T05:34:14.358Z,8.50
2018-12-08T05:36:42.846Z,8.50
2018-12-08T05:39:11.296Z,8.50
2018-12-08T05:41:39.773Z,8.50
2018-12-08T05:44:08.254Z,8.50
2018-12-08T05:46:36.715Z,8.50
2018-12-08T05:49:05.201Z,8.50
2018-12-08T05:51:33.650Z,8.50
2018-12-08T05:54:02.125Z,8.50
2018-12-08T05:56:30.689Z,8.50
2018-12-08T05:58:59.177Z,8.50
2018-12-08T06:01:27.661Z,8.50
2018-12-08T06:03:56.203Z,8.50
2018-12-08T06:06:24.702Z,8.50
2018-12-08T06:08:53.174Z,8.50
2018-12-08T06:11:21.643Z,8.50
2018-12-08T06:13:50.087Z,8.50
2018-12-08T06:16:18.492Z,8.50
2018-12-08T06:18:46.918Z,8.50
2018-12-08T06:21:15.351Z,8.60
2018-12-08T06:23:43.799Z,8.60
2018-12-08T06:26:20.663Z,8.50
2018-12-08T06:28:52.187Z,8.60
2018-12-08T06:31:20.601Z,8.60
2018-12-08T06:33:49.076Z,8.60
2018-12-08T06:36:17.519Z,8.60
2018-12-08T06:38:45.959Z,8.60
2018-12-08T06:41:14.352Z,8.70
2018-12-08T06:43:42.806Z,8.70
2018-12-08T06:46:11.246Z,8.70
2018-12-08T06:48:39.763Z,8.60
2018-12-08T06:51:08.684Z,8.60
2018-12-08T06:53:37.214Z,8.50
2018-12-08T06:56:05.722Z,8.50
2018-12-08T06:58:34.160Z,8.50
2018-12-08T07:01:02.770Z,8.50
2018-12-08T07:03:31.330Z,8.50
2018-12-08T07:05:59.783Z,8.50
2018-12-08T07:08:28.243Z,8.50
2018-12-08T07:10:56.721Z,8.50
2018-12-08T07:13:25.226Z,8.50
2018-12-08T07:15:53.759Z,8.50
2018-12-08T07:18:22.226Z,8.50
2018-12-08T07:20:50.694Z,8.40
2018-12-08T07:23:19.193Z,8.40
2018-12-08T07:25:47.716Z,8.40
2018-12-08T07:28:16.206Z,8.40
2018-12-08T07:30:44.764Z,8.30
2018-12-08T07:33:13.274Z,8.30
2018-12-08T07:35:41.859Z,8.30
2018-12-08T07:38:10.583Z,8.30
2018-12-08T07:40:39.096Z,8.30
2018-12-08T07:43:07.605Z,8.30
2018-12-08T07:45:36.112Z,8.20
2018-12-08T07:48:04.678Z,8.20
2018-12-08T07:50:34.931Z,8.10
2018-12-08T07:53:04.459Z,8.10
2018-12-08T07:55:33.193Z,8.10
2018-12-08T07:58:01.613Z,8.10
2018-12-08T08:00:30.099Z,8.00
2018-12-08T08:02:58.565Z,8.00
2018-12-08T08:05:27.039Z,8.00
2018-12-08T08:07:55.432Z,8.00
2018-12-08T08:10:23.858Z,8.10
2018-12-08T08:12:52.279Z,8.20
2018-12-08T08:15:20.710Z,8.20
2018-12-08T08:17:49.139Z,8.10
2018-12-08T08:20:17.614Z,8.20
2018-12-08T08:22:46.014Z,8.20
2018-12-08T08:25:14.447Z,8.20
2018-12-08T08:27:42.866Z,8.20
2018-12-08T08:30:12.125Z,8.30
2018-12-08T08:32:40.536Z,8.30
2018-12-08T08:35:09.353Z,8.30
2018-12-08T08:37:37.962Z,8.30
2018-12-08T08:40:09.067Z,8.40
2018-12-08T08:42:37.538Z,8.50
2018-12-08T08:45:06.506Z,8.50
2018-12-08T08:47:34.954Z,8.60
2018-12-08T08:50:05.086Z,8.70
2018-12-08T08:52:33.637Z,8.70
2018-12-08T08:55:02.089Z,8.80
2018-12-08T08:57:30.522Z,8.80
2018-12-08T08:59:58.962Z,8.70
2018-12-08T09:02:27.407Z,8.70
2018-12-08T09:04:55.903Z,8.80
2018-12-08T09:07:24.886Z,8.70
2018-12-08T09:09:53.277Z,8.70
2018-12-08T09:12:21.881Z,8.80
2018-12-08T09:14:50.362Z,8.80
2018-12-08T09:17:18.851Z,8.80
2018-12-08T09:19:47.378Z,8.80
2018-12-08T09:22:15.814Z,8.90
2018-12-08T09:24:44.286Z,8.90
2018-12-08T09:27:12.739Z,9.00
2018-12-08T09:29:41.152Z,9.00
2018-12-08T09:32:09.602Z,9.20
2018-12-08T09:34:38.046Z,9.30
2018-12-08T09:37:06.488Z,9.30
2018-12-08T09:39:35.040Z,9.30
2018-12-08T09:42:03.494Z,9.30
2018-12-08T09:44:31.913Z,9.30
2018-12-08T09:47:00.474Z,9.30
2018-12-08T09:49:28.953Z,9.40
2018-12-08T09:51:57.518Z,9.40
2018-12-08T09:54:25.970Z,9.40
2018-12-08T09:56:54.396Z,9.50
2018-12-08T09:59:22.929Z,9.50
2018-12-08T10:01:52.504Z,9.50
2018-12-08T10:04:22.996Z,9.50
2018-12-08T10:06:51.447Z,9.40
2018-12-08T10:09:19.921Z,9.40
2018-12-08T10:11:48.383Z,9.40
2018-12-08T10:14:16.824Z,9.30
2018-12-08T10:16:45.259Z,9.30
2018-12-08T10:19:13.692Z,9.30
2018-12-08T10:21:42.116Z,9.30
2018-12-08T10:24:11.021Z,9.30
2018-12-08T10:26:39.474Z,9.40
2018-12-08T10:29:08.243Z,9.40
2018-12-08T10:31:36.702Z,9.40
2018-12-08T10:34:05.267Z,9.50
2018-12-08T10:36:33.754Z,9.50
2018-12-08T10:39:02.332Z,9.50
2018-12-08T10:41:30.812Z,9.50
2018-12-08T10:43:59.257Z,9.60
2018-12-08T10:46:27.887Z,9.60
2018-12-08T10:48:56.473Z,9.50
2018-12-08T10:51:24.895Z,9.60
2018-12-08T10:53:53.334Z,9.60
2018-12-08T10:56:21.799Z,9.60
2018-12-08T10:58:50.218Z,9.70
2018-12-08T11:01:19.042Z,9.70
2018-12-08T11:03:50.281Z,9.80
2018-12-08T11:06:18.773Z,9.80
2018-12-08T11:08:47.231Z,9.90
2018-12-08T11:11:15.863Z,9.90
2018-12-08T11:13:46.571Z,9.90
2018-12-08T11:16:15.010Z,9.90
2018-12-08T11:18:43.438Z,10.00
2018-12-08T11:21:11.918Z,10.00
2018-12-08T11:23:40.330Z,10.10
2018-12-08T11:26:08.785Z,10.10
2018-12-08T11:28:37.474Z,10.20
2018-12-08T11:31:05.941Z,10.30
2018-12-08T11:33:34.410Z,10.40
2018-12-08T11:36:02.874Z,10.40
2018-12-08T11:38:31.279Z,10.40
2018-12-08T11:40:59.731Z,10.40
2018-12-08T11:43:28.279Z,10.40
2018-12-08T11:45:56.898Z,10.40
2018-12-08T11:48:25.368Z,10.40
2018-12-08T11:50:53.823Z,10.40
2018-12-08T11:53:22.386Z,10.50
2018-12-08T11:55:50.826Z,10.40
2018-12-08T11:58:19.251Z,10.40
2018-12-08T12:00:47.690Z,10.50
2018-12-08T12:03:16.138Z,10.50
2018-12-08T12:05:44.621Z,10.50
2018-12-08T12:08:13.116Z,10.50
2018-12-08T12:10:41.666Z,10.40
2018-12-08T12:13:10.254Z,10.30
2018-12-08T12:15:38.738Z,10.30
2018-12-08T12:18:07.190Z,10.30
2018-12-08T12:21:14.055Z,10.20
2018-12-08T12:23:42.543Z,10.20
2018-12-08T12:26:11.056Z,10.20
2018-12-08T12:28:39.472Z,10.20
2018-12-08T12:31:07.933Z,10.30
2018-12-08T12:33:36.369Z,10.30
2018-12-08T12:36:04.818Z,10.30
2018-12-08T12:38:33.287Z,10.30
2018-12-08T12:41:01.740Z,10.30
2018-12-08T12:43:30.256Z,10.30
2018-12-08T12:45:58.693Z,10.30
2018-12-08T12:48:27.126Z,10.30
2018-12-08T12:50:55.595Z,10.20
2018-12-08T12:53:24.002Z,10.20
2018-12-08T12:55:52.557Z,10.20
2018-12-08T12:58:21.033Z,10.20
2018-12-08T13:00:50.322Z,10.20
2018-12-08T13:03:20.261Z,10.20
2018-12-08T13:05:49.150Z,10.30
2018-12-08T13:08:21.870Z,10.30
2018-12-08T13:10:50.305Z,10.40
2018-12-08T13:13:18.901Z,10.40
2018-12-08T13:15:47.707Z,10.30
2018-12-08T13:18:16.278Z,10.30
2018-12-08T13:20:44.745Z,10.30
2018-12-08T13:23:13.162Z,10.40
2018-12-08T13:25:41.842Z,10.40
2018-12-08T13:28:10.262Z,10.50
2018-12-08T13:30:38.699Z,10.50
2018-12-08T13:33:07.131Z,10.50
2018-12-08T13:35:58.215Z,10.50
2018-12-08T13:38:26.809Z,10.50
2018-12-08T13:40:55.522Z,10.60
2018-12-08T13:43:23.959Z,10.60
2018-12-08T13:45:52.475Z,10.60
2018-12-08T13:48:24.491Z,10.70
2018-12-08T13:50:53.931Z,10.70
2018-12-08T13:53:22.695Z,10.70
2018-12-08T13:55:54.627Z,10.70
2018-12-08T13:58:24.298Z,10.60
2018-12-08T14:00:52.734Z,10.60
2018-12-08T14:03:21.191Z,10.60
2018-12-08T14:08:51.876Z,10.70
2018-12-08T14:11:20.305Z,10.70
2018-12-08T14:13:48.735Z,10.70
2018-12-08T14:16:17.166Z,10.70
2018-12-08T14:18:45.984Z,10.80
2018-12-08T14:21:14.434Z,10.80
2018-12-08T14:23:42.886Z,10.80
2018-12-08T14:26:12.262Z,10.80
2018-12-08T14:28:40.836Z,10.80
2018-12-08T14:31:09.307Z,10.80
2018-12-08T14:33:37.746Z,10.80
2018-12-08T14:36:06.212Z,10.80
2018-12-08T14:38:34.753Z,10.80
2018-12-08T14:41:03.177Z,10.80
2018-12-08T14:43:31.834Z,10.80
2018-12-08T14:46:00.267Z,10.80
2018-12-08T14:48:28.695Z,10.80
2018-12-08T14:50:57.099Z,10.80
2018-12-08T14:53:25.786Z,10.80
2018-12-08T14:55:54.194Z,10.80
2018-12-08T14:58:22.678Z,10.80
2018-12-08T15:00:51.078Z,10.80
2018-12-08T15:03:19.517Z,10.80
2018-12-08T15:05:48.062Z,10.80
2018-12-08T15:08:16.477Z,10.80
2018-12-08T15:10:44.930Z,10.80
2018-12-08T15:13:13.896Z,10.70
2018-12-08T15:15:42.327Z,10.70
2018-12-08T15:18:10.754Z,10.70
2018-12-08T15:20:39.161Z,10.70
2018-12-08T15:23:07.616Z,10.70
2018-12-08T15:25:36.574Z,10.70
2018-12-08T15:28:05.020Z,10.70
2018-12-08T15:30:33.575Z,10.70
2018-12-08T15:33:02.015Z,10.70
2018-12-08T15:35:30.462Z,10.80
2018-12-08T15:37:58.918Z,10.80
2018-12-08T15:40:27.330Z,10.80
2018-12-08T15:42:55.748Z,10.70
2018-12-08T15:45:24.197Z,10.70
2018-12-08T15:47:52.614Z,10.70
2018-12-08T15:50:21.224Z,10.80
2018-12-08T15:52:49.635Z,10.70
2018-12-08T15:55:18.091Z,10.80
2018-12-08T15:57:46.605Z,10.80
2018-12-08T16:00:15.290Z,10.80
2018-12-08T16:02:43.727Z,10.80
2018-12-08T16:05:12.417Z,10.80
2018-12-08T16:07:40.909Z,10.80
2018-12-08T16:10:09.911Z,10.80
2018-12-08T16:12:38.363Z,10.90
2018-12-08T16:15:08.749Z,10.80
2018-12-08T16:17:37.196Z,10.90
2018-12-08T16:20:08.983Z,10.80
2018-12-08T16:22:37.449Z,10.80
2018-12-08T16:25:06.182Z,10.80
2018-12-08T16:27:34.630Z,10.80
2018-12-08T16:30:03.686Z,10.90
2018-12-08T16:32:32.202Z,10.90
2018-12-08T16:35:00.649Z,10.80
2018-12-08T16:37:29.216Z,10.80
2018-12-08T16:39:57.694Z,10.90
2018-12-08T16:42:26.151Z,10.80
2018-12-08T16:44:54.713Z,10.80
2018-12-08T16:47:23.157Z,10.80
2018-12-08T16:49:51.612Z,10.80
2018-12-08T16:52:20.034Z,10.90
2018-12-08T16:54:48.674Z,10.90
2018-12-08T16:57:17.257Z,10.90
2018-12-08T16:59:45.815Z,10.80
2018-12-08T17:02:14.281Z,10.90
2018-12-08T17:04:42.873Z,10.90
2018-12-08T17:07:11.302Z,10.80
2018-12-08T17:09:39.782Z,10.90
2018-12-08T17:12:08.285Z,10.90
2018-12-08T17:14:36.733Z,10.90
2018-12-08T17:17:05.245Z,10.90
2018-12-08T17:19:33.692Z,10.90
2018-12-08T17:22:02.143Z,10.80
2018-12-08T17:24:30.639Z,10.80
2018-12-08T17:26:59.173Z,10.80
2018-12-08T17:29:27.624Z,10.70
2018-12-08T17:31:56.444Z,10.70
2018-12-08T17:34:25.105Z,10.70
2018-12-08T17:36:53.699Z,10.80
2018-12-08T17:39:22.336Z,10.70
2018-12-08T17:41:50.801Z,10.70
2018-12-08T17:44:19.901Z,10.70
2018-12-08T17:46:48.684Z,10.70
2018-12-08T17:49:17.309Z,10.70
2018-12-08T17:51:45.824Z,10.70
2018-12-08T17:54:14.274Z,10.70
2018-12-08T17:56:42.715Z,10.70
2018-12-08T17:59:11.161Z,10.60
2018-12-08T18:01:39.627Z,10.60
2018-12-08T18:04:08.191Z,10.60
2018-12-08T18:06:36.998Z,10.60
2018-12-08T18:09:08.017Z,10.60
2018-12-08T18:11:36.465Z,10.60
2018-12-08T18:14:05.131Z,10.60
2018-12-08T18:16:33.675Z,10.50
2018-12-08T18:19:02.107Z,10.50
2018-12-08T18:21:30.735Z,10.50
2018-12-08T18:23:59.304Z,10.50
2018-12-08T18:26:27.758Z,10.50
2018-12-08T18:28:56.154Z,10.50
2018-12-08T18:31:24.610Z,10.50
2018-12-08T18:33:53.319Z,10.40
2018-12-08T18:36:21.791Z,10.40
2018-12-08T18:38:50.214Z,10.40
2018-12-08T18:41:18.699Z,10.40
2018-12-08T18:43:47.162Z,10.30
2018-12-08T18:46:15.616Z,10.30
2018-12-08T18:48:44.273Z,10.30
2018-12-08T18:51:12.813Z,10.20
2018-12-08T18:53:41.373Z,10.20
2018-12-08T18:56:09.813Z,10.20
2018-12-08T18:58:38.234Z,10.20
2018-12-08T19:01:06.831Z,10.20
2018-12-08T19:03:35.473Z,10.10
2018-12-08T19:06:04.065Z,10.10
2018-12-08T19:08:32.596Z,10.10
2018-12-08T19:11:01.336Z,10.10
2018-12-08T19:13:29.830Z,10.00
2018-12-08T19:15:58.480Z,10.00
2018-12-08T19:18:26.973Z,9.90
2018-12-08T19:20:55.430Z,9.90
2018-12-08T19:23:23.919Z,9.90
2018-12-08T19:25:52.353Z,9.90
2018-12-08T19:28:20.892Z,9.80
2018-12-08T19:30:49.394Z,9.80
2018-12-08T19:33:17.898Z,9.90
2018-12-08T19:35:46.348Z,9.80
2018-12-08T19:38:14.834Z,9.80
2018-12-08T19:40:43.335Z,9.80
2018-12-08T19:43:12.023Z,9.80
2018-12-08T19:45:40.828Z,9.80
2018-12-08T19:48:09.306Z,9.80
2018-12-08T19:50:38.637Z,9.70
2018-12-08T19:53:07.234Z,9.70
2018-12-08T19:55:36.002Z,9.80
2018-12-08T19:58:04.579Z,9.70
2018-12-08T20:00:33.189Z,9.80
2018-12-08T20:03:01.623Z,9.80
2018-12-08T20:05:30.239Z,9.80
2018-12-08T20:07:58.855Z,9.90
2018-12-08T20:10:28.365Z,10.00
2018-12-08T20:12:57.006Z,10.00
2018-12-08T20:15:25.430Z,10.00
2018-12-08T20:17:53.852Z,10.00
2018-12-08T20:20:22.322Z,10.10
2018-12-08T20:22:50.841Z,10.10
2018-12-08T20:25:19.310Z,10.00
2018-12-08T20:27:47.766Z,10.00
2018-12-08T20:30:16.310Z,10.00
2018-12-08T20:32:44.756Z,10.00
2018-12-08T20:35:13.201Z,9.90
2018-12-08T20:37:41.690Z,9.90
2018-12-08T20:40:10.226Z,10.00
2018-12-08T20:42:38.808Z,10.00
2018-12-08T20:45:07.479Z,10.00
2018-12-08T20:47:36.106Z,10.00
2018-12-08T20:50:05.026Z,10.00
2018-12-08T20:52:33.465Z,10.00
2018-12-08T20:55:01.933Z,10.00
2018-12-08T20:57:30.703Z,10.10
2018-12-08T20:59:59.604Z,10.10
2018-12-08T21:02:28.247Z,10.20
2018-12-08T21:04:56.998Z,10.20
2018-12-08T21:07:25.682Z,10.20
2018-12-08T21:09:54.244Z,10.20
2018-12-08T21:12:22.789Z,10.20
2018-12-08T21:14:51.221Z,10.30
2018-12-08T21:17:19.691Z,10.40
2018-12-08T21:19:48.153Z,10.50
2018-12-08T21:22:17.186Z,10.60
2018-12-08T21:24:45.877Z,10.70
2018-12-08T21:27:14.474Z,10.70
2018-12-08T21:29:44.779Z,10.90
2018-12-08T21:32:13.252Z,10.90
2018-12-08T21:34:42.739Z,10.90
2018-12-08T21:37:11.257Z,10.90
2018-12-08T21:42:32.752Z,10.80
2018-12-08T21:45:01.804Z,10.90
2018-12-08T21:47:31.458Z,10.90
2018-12-08T21:49:59.921Z,10.80
2018-12-08T21:52:30.665Z,10.80
2018-12-08T21:54:59.267Z,10.70
2018-12-08T21:57:27.956Z,10.60
2018-12-08T21:59:56.382Z,10.60
2018-12-08T22:02:24.908Z,10.70
2018-12-08T22:04:53.468Z,10.60
2018-12-08T22:07:22.122Z,10.70
2018-12-08T22:09:50.647Z,10.60
2018-12-08T22:12:19.135Z,10.60
2018-12-08T22:14:52.839Z,10.50
2018-12-08T22:17:21.425Z,10.50
2018-12-08T22:19:49.845Z,10.50
2018-12-08T22:22:18.286Z,10.50
2018-12-08T22:24:46.876Z,10.60
2018-12-08T22:27:15.518Z,10.60
2018-12-08T22:29:43.992Z,10.60
2018-12-08T22:32:12.557Z,10.70
2018-12-08T22:34:41.022Z,10.80
2018-12-08T22:37:09.486Z,10.80
2018-12-08T22:39:37.946Z,10.80
2018-12-08T22:42:06.474Z,10.80
2018-12-08T22:44:35.047Z,10.90
2018-12-08T22:47:03.863Z,10.90
2018-12-08T22:49:32.314Z,11.00
2018-12-08T22:52:00.942Z,11.00
2018-12-08T22:54:29.614Z,11.00
2018-12-08T22:56:58.084Z,11.10
2018-12-08T22:59:26.798Z,11.10
2018-12-08T23:01:55.516Z,11.10
2018-12-08T23:04:24.008Z,11.10
2018-12-08T23:07:01.445Z,11.20
2018-12-08T23:09:30.140Z,11.20
2018-12-08T23:11:58.650Z,11.20
2018-12-08T23:14:27.535Z,11.20
2018-12-08T23:16:55.948Z,11.20
2018-12-08T23:19:24.426Z,11.20
2018-12-08T23:21:53.305Z,11.20
2018-12-08T23:24:21.747Z,11.30
2018-12-08T23:26:50.281Z,11.20
2018-12-08T23:29:18.900Z,11.30
2018-12-08T23:31:47.309Z,11.20
2018-12-08T23:34:15.806Z,11.10
2018-12-08T23:36:44.325Z,11.10
2018-12-08T23:39:12.892Z,10.90
2018-12-08T23:41:41.644Z,10.70
2018-12-08T23:44:10.134Z,10.40
2018-12-08T23:46:38.614Z,10.30
2018-12-08T23:49:11.366Z,10.20
2018-12-08T23:51:38.818Z,10.20
2018-12-08T23:54:07.499Z,10.00
2018-12-08T23:56:35.970Z,9.80
2018-12-08T23:59:04.403Z,9.60
